Time;durP1;ratioP1;P1;durP2;ratioP2;P2;SDS_P1;SDS_P2;PMS_P1;PMS_P2;Temp;Humidity;BMP_temperature;BMP_pressure;BME280_temperature;BME280_humidity;BME280_pressure;Samples;Min_cycle;Max_cycle;Signal;HPM_P1;HPM_P2
2024/02/24 00:00:23;;;;;;;0.60;0.60;;;;;;;3.05;76.84;95064.66;29395;228;63009;-53
2024/02/24 00:00:55;;;;;;;0.60;0.60;;;;;;;3.04;77.14;95071.13;29395;313;63004;-53
2024/02/24 00:01:27;;;;;;;1.00;1.00;;;;;;;3.04;77.29;95065.75;29395;221;63008;-53
2024/02/24 00:01:59;;;;;;;0.60;0.60;;;;;;;3.03;77.40;95070.31;29393;217;64008;-52
2024/02/24 00:02:33;;;;;;;0.70;0.70;;;;;;;3.04;77.36;95065.75;29395;205;63009;-53
2024/02/24 00:03:04;;;;;;;0.70;0.70;;;;;;;3.06;77.75;95068.94;29395;215;63005;-53
2024/02/24 00:03:35;;;;;;;0.60;0.60;;;;;;;3.06;77.62;95076.97;29395;219;63017;-53
2024/02/24 00:04:07;;;;;;;0.70;0.70;;;;;;;3.06;77.74;95079.66;29395;257;63005;-52
2024/02/24 00:04:38;;;;;;;0.60;0.60;;;;;;;3.06;77.55;95073.50;29395;219;63009;-52
2024/02/24 00:05:09;;;;;;;0.60;0.60;;;;;;;3.05;77.52;95078.06;29395;205;63005;-53
2024/02/24 00:05:40;;;;;;;0.60;0.60;;;;;;;3.08;77.51;95077.50;29395;337;63009;-53
2024/02/24 00:06:12;;;;;;;0.60;0.60;;;;;;;3.07;77.14;95083.94;29395;214;63005;-52
2024/02/24 00:06:44;;;;;;;0.80;0.80;;;;;;;3.12;76.89;95078.47;29394;216;64013;-53
2024/02/24 00:07:15;;;;;;;0.70;0.70;;;;;;;3.14;76.80;95080.88;29395;196;63004;-53
2024/02/24 00:07:47;;;;;;;0.70;0.70;;;;;;;3.17;76.94;95075.72;29395;215;63009;-53
2024/02/24 00:08:18;;;;;;;0.60;0.60;;;;;;;3.18;77.19;95080.00;29395;269;63004;-52
2024/02/24 00:08:50;;;;;;;0.60;0.60;;;;;;;3.20;76.95;95074.34;29395;203;63009;-54
2024/02/24 00:09:21;;;;;;;0.70;0.70;;;;;;;3.20;76.55;95077.84;29395;373;63004;-53
2024/02/24 00:09:53;;;;;;;0.60;0.60;;;;;;;3.18;76.49;95071.97;29395;198;63009;-53
2024/02/24 00:10:26;;;;;;;0.60;0.60;;;;;;;3.17;77.23;95078.41;29395;253;63005;-52
2024/02/24 00:10:57;;;;;;;0.60;0.60;;;;;;;3.15;77.36;95083.25;29395;221;63009;-53
2024/02/24 00:11:28;;;;;;;0.60;0.60;;;;;;;3.12;77.71;95078.47;29395;199;63005;-52
2024/02/24 00:12:01;;;;;;;0.60;0.60;;;;;;;3.11;77.87;95076.91;29394;212;64013;-52
2024/02/24 00:12:33;;;;;;;0.65;0.65;;;;;;;3.09;78.02;95071.03;29395;230;63005;-52
2024/02/24 00:13:06;;;;;;;0.60;0.60;;;;;;;3.07;78.03;95075.91;29395;197;63009;-53
2024/02/24 00:13:38;;;;;;;0.60;0.60;;;;;;;3.06;78.37;95074.31;29395;203;63005;-53
2024/02/24 00:14:10;;;;;;;0.60;0.60;;;;;;;3.06;77.95;95068.94;29395;219;63015;-53
2024/02/24 00:14:41;;;;;;;0.60;0.60;;;;;;;3.07;78.22;95075.91;29395;275;63004;-53
2024/02/24 00:15:12;;;;;;;0.70;0.70;;;;;;;3.10;77.87;95069.97;29395;220;63009;-69
2024/02/24 00:15:43;;;;;;;0.70;0.70;;;;;;;3.15;77.08;95061.81;29395;225;63004;-53
2024/02/24 00:16:15;;;;;;;0.70;0.70;;;;;;;3.17;76.86;95062.34;29395;212;63014;-53
2024/02/24 00:16:47;;;;;;;0.65;0.65;;;;;;;3.15;77.41;95072.53;29395;379;63004;-53
2024/02/24 00:17:18;;;;;;;0.68;0.68;;;;;;;3.16;77.37;95063.41;29394;212;64013;-53
2024/02/24 00:17:49;;;;;;;0.70;0.70;;;;;;;3.15;77.49;95067.19;29395;356;63005;-68
2024/02/24 00:18:24;;;;;;;0.60;0.60;;;;;;;3.14;77.48;95068.28;29395;262;63009;-52
2024/02/24 00:18:59;;;;;;;0.60;0.60;;;;;;;3.16;77.46;95062.63;29395;214;63005;-53
2024/02/24 00:19:30;;;;;;;0.60;0.60;;;;;;;3.17;77.61;95069.56;29395;350;63009;-53
2024/02/24 00:20:02;;;;;;;0.60;0.60;;;;;;;3.15;77.80;95067.19;29395;202;63005;-53
2024/02/24 00:20:33;;;;;;;0.60;0.60;;;;;;;3.15;77.93;95069.06;29395;215;63009;-52
2024/02/24 00:21:05;;;;;;;0.60;0.60;;;;;;;3.17;77.51;95059.66;29395;252;63005;-52
2024/02/24 00:21:36;;;;;;;0.60;0.60;;;;;;;3.17;77.48;95065.00;29395;212;63009;-53
2024/02/24 00:22:07;;;;;;;0.70;0.70;;;;;;;3.19;77.66;95068.19;29395;197;63004;-53
2024/02/24 00:22:39;;;;;;;0.70;0.70;;;;;;;3.19;77.61;95068.19;29394;232;64013;-53
2024/02/24 00:23:10;;;;;;;0.60;0.60;;;;;;;3.17;78.47;95059.66;29395;237;63011;-52
2024/02/24 00:23:41;;;;;;;0.60;0.60;;;;;;;3.16;78.54;95062.63;29395;204;63009;-70
2024/02/24 00:24:12;;;;;;;0.60;0.60;;;;;;;3.13;78.58;95065.88;29395;227;63004;-52
2024/02/24 00:24:44;;;;;;;0.70;0.70;;;;;;;3.12;77.98;95056.28;29395;224;63008;-53
2024/02/24 00:25:15;;;;;;;0.60;0.60;;;;;;;3.13;78.02;95061.31;29394;223;64009;-53
2024/02/24 00:25:46;;;;;;;0.60;0.60;;;;;;;3.14;78.34;95070.16;29395;221;63009;-52
2024/02/24 00:26:18;;;;;;;0.60;0.60;;;;;;;3.12;78.43;95062.41;29395;271;63005;-52
2024/02/24 00:26:49;;;;;;;0.70;0.70;;;;;;;3.10;78.32;95059.25;29395;210;63009;-52
2024/02/24 00:27:22;;;;;;;0.60;0.60;;;;;;;3.10;78.20;95058.44;29395;285;63005;-52
2024/02/24 00:27:55;;;;;;;0.70;0.70;;;;;;;3.11;78.14;95057.38;29395;245;63009;-52
2024/02/24 00:28:26;;;;;;;0.60;0.60;;;;;;;3.09;78.44;95052.28;29395;255;63005;-52
2024/02/24 00:28:57;;;;;;;0.60;0.60;;;;;;;3.14;77.63;95065.59;29395;315;63009;-52
2024/02/24 00:29:29;;;;;;;0.70;0.70;;;;;;;3.15;77.58;95061.03;29395;202;63004;-52
2024/02/24 00:30:01;;;;;;;0.70;0.70;;;;;;;3.13;78.18;95053.28;29395;220;63009;-52
2024/02/24 00:30:33;;;;;;;0.60;0.60;;;;;;;3.12;78.22;95062.41;29394;217;64009;-52
2024/02/24 00:31:04;;;;;;;0.60;0.60;;;;;;;3.13;77.95;95064.00;29395;216;63009;-52
2024/02/24 00:31:35;;;;;;;0.60;0.60;;;;;;;3.11;78.16;95055.47;29395;253;63004;-51
2024/02/24 00:32:07;;;;;;;0.60;0.60;;;;;;;3.11;78.21;95063.53;29395;238;63008;-52
2024/02/24 00:32:38;;;;;;;0.60;0.60;;;;;;;3.11;78.49;95060.84;29395;205;63005;-52
2024/02/24 00:33:10;;;;;;;0.60;0.60;;;;;;;3.10;78.60;95061.91;29395;203;63009;-53
2024/02/24 00:33:41;;;;;;;0.65;0.65;;;;;;;3.09;78.85;95060.34;29395;234;63005;-52
2024/02/24 00:34:13;;;;;;;0.60;0.60;;;;;;;3.08;78.53;95066.78;29395;250;63009;-52
2024/02/24 00:34:44;;;;;;;0.70;0.70;;;;;;;3.08;78.79;95064.09;29395;197;63005;-52
2024/02/24 00:35:15;;;;;;;0.70;0.70;;;;;;;3.07;78.54;95070.53;29395;285;63009;-53
2024/02/24 00:35:47;;;;;;;0.70;0.70;;;;;;;3.08;79.14;95072.13;29394;232;64009;-53
2024/02/24 00:36:19;;;;;;;0.60;0.60;;;;;;;3.09;79.47;95067.56;29395;206;63009;-52
2024/02/24 00:36:50;;;;;;;0.62;0.62;;;;;;;3.06;79.33;95068.94;29395;304;63015;-52
2024/02/24 00:37:21;;;;;;;0.60;0.60;;;;;;;3.06;79.35;95068.94;29395;202;63009;-52
2024/02/24 00:37:52;;;;;;;0.60;0.60;;;;;;;3.03;79.15;95072.19;29395;262;63004;-52
2024/02/24 00:38:24;;;;;;;0.60;0.60;;;;;;;3.02;79.37;95087.47;29395;234;63008;-52
2024/02/24 00:38:55;;;;;;;0.60;0.60;;;;;;;3.02;79.27;95073.28;29395;210;63004;-53
2024/02/24 00:39:26;;;;;;;0.60;0.60;;;;;;;3.05;79.31;95071.91;29395;216;63008;-51
2024/02/24 00:39:58;;;;;;;0.60;0.60;;;;;;;3.05;79.02;95078.06;29395;218;63004;-52
2024/02/24 00:40:29;;;;;;;0.60;0.60;;;;;;;3.05;79.15;95072.72;29395;208;63009;-54
2024/02/24 00:41:01;;;;;;;0.60;0.60;;;;;;;3.06;79.15;95074.31;29394;196;64009;-69
2024/02/24 00:41:33;;;;;;;0.70;0.70;;;;;;;3.06;79.41;95076.19;29395;336;63019;-54
2024/02/24 00:42:08;;;;;;;0.60;0.60;;;;;;;3.04;79.26;95081.84;29395;196;63005;-52
2024/02/24 00:42:40;;;;;;;0.70;0.70;;;;;;;3.03;79.23;95074.88;29395;202;63009;-52
2024/02/24 00:43:11;;;;;;;0.60;0.60;;;;;;;3.02;79.35;95071.41;29395;208;63005;-52
2024/02/24 00:43:42;;;;;;;0.70;0.70;;;;;;;3.03;78.98;95074.88;29395;318;63009;-52
2024/02/24 00:44:14;;;;;;;0.70;0.70;;;;;;;3.03;79.78;95077.56;29395;277;63004;-52
2024/02/24 00:44:45;;;;;;;0.60;0.60;;;;;;;3.05;79.52;95077.28;29395;261;63009;-52
2024/02/24 00:45:16;;;;;;;0.70;0.70;;;;;;;3.05;78.88;95069.22;29395;269;63004;-52
2024/02/24 00:45:47;;;;;;;0.60;0.60;;;;;;;3.06;78.66;95071.63;29395;223;63009;-54
2024/02/24 00:46:19;;;;;;;0.60;0.60;;;;;;;3.11;78.71;95068.88;29394;199;64008;-51
2024/02/24 00:46:51;;;;;;;0.60;0.60;;;;;;;3.14;78.30;95070.94;29395;239;63009;-52
2024/02/24 00:47:22;;;;;;;0.60;0.60;;;;;;;3.14;78.04;95064.78;29395;220;63005;-52
2024/02/24 00:47:53;;;;;;;0.60;0.60;;;;;;;3.12;78.12;95061.63;29395;214;63009;-52
2024/02/24 00:48:24;;;;;;;0.70;0.70;;;;;;;3.11;78.59;95071.56;29395;213;63005;-52
2024/02/24 00:48:55;;;;;;;0.60;0.60;;;;;;;3.10;78.55;95069.16;29395;370;63009;-52
2024/02/24 00:49:29;;;;;;;0.62;0.62;;;;;;;3.07;78.72;95065.19;29395;204;63005;-53
2024/02/24 00:50:02;;;;;;;0.80;0.80;;;;;;;3.07;78.32;95064.38;29395;203;63013;-52
2024/02/24 00:50:34;;;;;;;0.60;0.60;;;;;;;3.08;78.65;95066.78;29395;211;63005;-52
2024/02/24 00:51:05;;;;;;;0.60;0.60;;;;;;;3.07;78.47;95059.81;29395;270;63009;-52
2024/02/24 00:51:36;;;;;;;0.70;0.70;;;;;;;3.06;78.57;95058.22;29394;210;64009;-53
2024/02/24 00:52:08;;;;;;;0.70;0.70;;;;;;;3.07;78.52;95065.19;29395;255;63009;-54
2024/02/24 00:52:39;;;;;;;0.60;0.60;;;;;;;3.07;78.66;95065.19;29395;353;63004;-53
2024/02/24 00:53:10;;;;;;;0.60;0.60;;;;;;;3.09;78.33;95063.00;29395;277;63009;-53
2024/02/24 00:53:42;;;;;;;0.60;0.60;;;;;;;3.10;78.21;95059.25;29395;256;63000;-53
2024/02/24 00:54:13;;;;;;;0.60;0.60;;;;;;;3.09;78.35;95062.22;29395;202;63008;-53
2024/02/24 00:54:44;;;;;;;0.60;0.60;;;;;;;3.08;78.73;95072.13;29394;199;64005;-52
2024/02/24 00:55:16;;;;;;;0.60;0.60;;;;;;;3.09;78.53;95068.38;29395;205;63009;-52
2024/02/24 00:55:47;;;;;;;0.60;0.60;;;;;;;3.08;79.01;95069.44;29395;304;63005;-53
2024/02/24 00:56:19;;;;;;;0.60;0.60;;;;;;;3.07;78.58;95067.06;29395;230;63014;-52
2024/02/24 00:56:50;;;;;;;0.60;0.60;;;;;;;3.06;79.02;95074.31;29394;204;64009;-53
2024/02/24 00:57:21;;;;;;;0.65;0.65;;;;;;;3.06;78.78;95068.94;29395;204;63009;-52
2024/02/24 00:57:52;;;;;;;0.60;0.60;;;;;;;3.05;78.80;95067.34;29395;216;63005;-52
2024/02/24 00:58:24;;;;;;;0.60;0.60;;;;;;;3.04;78.61;95071.13;29395;216;63009;-53
2024/02/24 00:58:56;;;;;;;0.60;0.60;;;;;;;3.03;78.66;95067.63;29395;237;63004;-53
2024/02/24 00:59:27;;;;;;;0.70;0.70;;;;;;;3.05;78.67;95067.34;29395;198;63009;-52
2024/02/24 00:59:58;;;;;;;0.60;0.60;;;;;;;3.06;78.61;95071.63;29395;198;63004;-52
2024/02/24 01:00:30;;;;;;;0.60;0.60;;;;;;;3.07;78.44;95064.38;29395;218;63009;-52
2024/02/24 01:01:01;;;;;;;0.68;0.68;;;;;;;3.08;78.90;95065.97;29395;225;63004;-53
2024/02/24 01:01:35;;;;;;;0.60;0.60;;;;;;;3.08;78.71;95066.78;29395;292;63008;-52
2024/02/24 01:02:08;;;;;;;0.60;0.60;;;;;;;3.07;79.26;95070.53;29394;263;64009;-53
2024/02/24 01:02:39;;;;;;;0.60;0.60;;;;;;;3.05;79.41;95064.66;29395;299;63009;-52
2024/02/24 01:03:11;;;;;;;0.60;0.60;;;;;;;3.05;79.20;95071.91;29395;206;63005;-53
2024/02/24 01:03:42;;;;;;;0.60;0.60;;;;;;;3.04;79.23;95071.13;29395;243;63009;-53
2024/02/24 01:04:13;;;;;;;0.60;0.60;;;;;;;3.05;79.37;95067.34;29395;282;63005;-52
2024/02/24 01:04:44;;;;;;;0.60;0.60;;;;;;;3.04;79.90;95060.41;29395;214;63009;-52
2024/02/24 01:05:18;;;;;;;0.60;0.60;;;;;;;3.05;79.40;95066.56;29395;221;63011;-53
2024/02/24 01:05:50;;;;;;;0.60;0.60;;;;;;;3.02;79.10;95059.88;29395;202;63009;-53
2024/02/24 01:06:22;;;;;;;0.60;0.60;;;;;;;3.01;79.07;95064.44;29395;238;63004;-53
2024/02/24 01:06:53;;;;;;;0.60;0.60;;;;;;;3.01;79.11;95067.13;29395;298;63009;-53
2024/02/24 01:07:28;;;;;;;0.60;0.60;;;;;;;3.01;79.24;95064.44;29394;206;64012;-53
2024/02/24 01:08:00;;;;;;;0.60;0.60;;;;;;;2.99;79.92;95063.16;29395;212;63009;-52
2024/02/24 01:08:32;;;;;;;0.60;0.60;;;;;;;2.97;79.70;95065.31;29395;233;63004;-53
2024/02/24 01:09:03;;;;;;;0.60;0.60;;;;;;;2.96;79.86;95071.75;29395;219;63008;-52
2024/02/24 01:09:35;;;;;;;0.60;0.60;;;;;;;2.93;80.67;95081.16;29395;219;63005;-53
2024/02/24 01:10:08;;;;;;;0.60;0.60;;;;;;;2.91;80.81;95077.19;29395;218;63010;-53
2024/02/24 01:10:39;;;;;;;0.60;0.60;;;;;;;2.89;81.27;95079.34;29395;204;63005;-53
2024/02/24 01:11:14;;;;;;;0.60;0.60;;;;;;;2.88;81.04;95077.75;29395;253;63009;-53
2024/02/24 01:11:45;;;;;;;0.60;0.60;;;;;;;2.86;80.83;95082.59;29395;232;63005;-52
2024/02/24 01:12:16;;;;;;;0.60;0.60;;;;;;;2.86;81.03;95085.28;29395;205;63009;-52
2024/02/24 01:12:50;;;;;;;0.60;0.60;;;;;;;2.86;80.85;95079.91;29394;211;64009;-52
2024/02/24 01:13:21;;;;;;;0.70;0.70;;;;;;;2.85;80.88;95086.34;29395;212;63009;-52
2024/02/24 01:13:53;;;;;;;0.60;0.60;;;;;;;2.87;80.84;95086.88;29395;209;63004;-52
2024/02/24 01:14:28;;;;;;;0.60;0.60;;;;;;;2.86;80.79;95093.31;29395;236;63009;-53
2024/02/24 01:14:59;;;;;;;0.60;0.60;;;;;;;2.85;80.80;95089.84;29394;213;64004;-52
2024/02/24 01:15:33;;;;;;;0.60;0.60;;;;;;;2.79;80.96;95077.59;29395;307;63009;-52
2024/02/24 01:16:05;;;;;;;0.60;0.60;;;;;;;2.83;81.19;95091.22;29395;211;63004;-53
2024/02/24 01:16:41;;;;;;;0.60;0.60;;;;;;;2.82;81.03;95089.62;29395;253;63008;-53
2024/02/24 01:17:13;;;;;;;0.60;0.60;;;;;;;2.81;81.89;95090.69;29395;223;63005;-52
2024/02/24 01:17:44;;;;;;;0.60;0.60;;;;;;;2.79;81.92;95090.97;29395;202;63009;-53
2024/02/24 01:18:16;;;;;;;0.70;0.70;;;;;;;2.78;82.06;95091.25;29394;209;64009;-53
2024/02/24 01:18:47;;;;;;;0.60;0.60;;;;;;;2.76;81.74;95082.75;29395;222;63009;-53
2024/02/24 01:19:19;;;;;;;0.60;0.60;;;;;;;2.75;81.34;95091.87;29395;208;63005;-53
2024/02/24 01:19:50;;;;;;;0.60;0.60;;;;;;;2.74;81.58;95090.28;29395;220;63009;-53
2024/02/24 01:20:23;;;;;;;0.60;0.60;;;;;;;2.76;81.21;95088.09;29395;236;63005;-66
2024/02/24 01:20:57;;;;;;;0.60;0.60;;;;;;;2.80;80.93;95091.78;29395;198;63009;-52
2024/02/24 01:21:28;;;;;;;0.60;0.60;;;;;;;2.82;80.92;95092.28;29395;225;63004;-53
2024/02/24 01:21:59;;;;;;;0.60;0.60;;;;;;;2.82;81.07;95100.31;29395;230;63009;-52
2024/02/24 01:22:31;;;;;;;0.60;0.60;;;;;;;2.81;81.03;95093.37;29395;206;63004;-53
2024/02/24 01:23:03;;;;;;;0.60;0.60;;;;;;;2.80;80.52;95086.41;29395;346;63009;-52
2024/02/24 01:23:35;;;;;;;0.60;0.60;;;;;;;2.83;80.70;95085.84;29394;213;64009;-52
2024/02/24 01:24:06;;;;;;;0.60;0.60;;;;;;;2.86;80.53;95090.63;29395;203;63008;-53
2024/02/24 01:24:38;;;;;;;0.60;0.60;;;;;;;2.88;80.49;95085.78;29395;217;63005;-53
2024/02/24 01:25:09;;;;;;;0.60;0.60;;;;;;;2.88;80.55;95093.81;29395;280;63009;-53
2024/02/24 01:25:40;;;;;;;0.60;0.60;;;;;;;2.89;80.36;95090.06;29395;213;63009;-54
2024/02/24 01:26:11;;;;;;;0.60;0.60;;;;;;;2.88;80.43;95088.47;29395;209;63009;-52
2024/02/24 01:26:43;;;;;;;0.60;0.60;;;;;;;2.88;80.72;95089.25;29395;238;63005;-52
2024/02/24 01:27:14;;;;;;;0.60;0.60;;;;;;;2.90;80.43;95091.66;29395;237;63012;-53
2024/02/24 01:27:46;;;;;;;0.60;0.60;;;;;;;2.90;80.58;95097.00;29395;225;63011;-53
2024/02/24 01:28:17;;;;;;;0.60;0.60;;;;;;;2.91;80.58;95088.69;29395;197;63009;-53
2024/02/24 01:28:50;;;;;;;0.60;0.60;;;;;;;2.92;80.69;95087.59;29394;224;64009;-53
2024/02/24 01:29:22;;;;;;;0.60;0.60;;;;;;;2.93;80.40;95085.72;29395;203;63009;-52
2024/02/24 01:29:53;;;;;;;0.60;0.60;;;;;;;2.95;80.27;95088.91;29395;202;63004;-52
2024/02/24 01:30:26;;;;;;;0.60;0.60;;;;;;;2.98;80.45;95088.34;29395;216;63014;-53
2024/02/24 01:30:57;;;;;;;0.70;0.70;;;;;;;3.01;79.99;95087.75;29395;309;63004;-52
2024/02/24 01:31:28;;;;;;;0.70;0.70;;;;;;;2.99;80.18;95084.56;29395;203;63008;-52
2024/02/24 01:32:01;;;;;;;0.70;0.70;;;;;;;2.98;80.35;95082.97;29395;217;63004;-52
2024/02/24 01:32:32;;;;;;;0.60;0.60;;;;;;;2.99;80.34;95087.25;29395;276;63013;-53
2024/02/24 01:33:06;;;;;;;0.60;0.60;;;;;;;2.99;79.99;95082.69;29395;235;63005;-52
2024/02/24 01:33:37;;;;;;;0.60;0.60;;;;;;;3.00;80.32;95086.16;29395;214;63009;-53
2024/02/24 01:34:09;;;;;;;0.65;0.65;;;;;;;2.99;80.22;95085.37;29394;233;64009;-53
2024/02/24 01:34:40;;;;;;;0.65;0.65;;;;;;;3.01;80.35;95093.13;29395;233;63009;-53
2024/02/24 01:35:12;;;;;;;0.68;0.68;;;;;;;3.00;80.20;95086.97;29395;215;63005;-52
2024/02/24 01:35:43;;;;;;;0.60;0.60;;;;;;;3.02;80.35;95090.16;29395;282;63009;-53
2024/02/24 01:36:15;;;;;;;0.70;0.70;;;;;;;3.02;79.99;95097.41;29395;196;63004;-53
2024/02/24 01:36:46;;;;;;;0.60;0.60;;;;;;;3.02;80.05;95097.41;29395;212;63009;-52
2024/02/24 01:37:17;;;;;;;0.60;0.60;;;;;;;3.03;80.36;95099.00;29395;236;63004;-53
2024/02/24 01:37:48;;;;;;;0.60;0.60;;;;;;;3.03;80.38;95096.31;29395;197;63009;-53
2024/02/24 01:38:20;;;;;;;0.60;0.60;;;;;;;3.03;80.56;95101.69;29395;202;63004;-52
2024/02/24 01:38:53;;;;;;;0.60;0.60;;;;;;;3.06;80.84;95111.81;29395;306;63009;-53
2024/02/24 01:39:25;;;;;;;0.60;0.60;;;;;;;3.07;80.81;95104.56;29394;208;64009;-67
2024/02/24 01:39:56;;;;;;;0.60;0.60;;;;;;;3.07;80.89;95108.06;29395;206;63009;-53
2024/02/24 01:40:28;;;;;;;0.60;0.60;;;;;;;3.06;80.36;95101.09;29395;199;63005;-53
2024/02/24 01:40:59;;;;;;;0.60;0.60;;;;;;;3.08;80.10;95106.97;29395;206;63009;-53
2024/02/24 01:41:30;;;;;;;0.60;0.60;;;;;;;3.09;79.96;95103.19;29395;214;63005;-53
2024/02/24 01:42:02;;;;;;;0.60;0.60;;;;;;;3.10;80.10;95102.13;29395;276;63009;-52
2024/02/24 01:42:34;;;;;;;0.60;0.60;;;;;;;3.11;80.21;95106.41;29395;217;63005;-53
2024/02/24 01:43:23;;;;;;;0.60;0.60;;;;;;;3.11;80.18;95114.44;29395;232;63009;-52
2024/02/24 01:43:55;;;;;;;0.70;0.70;;;;;;;3.11;80.32;95113.63;29395;230;63012;-53
2024/02/24 01:44:26;;;;;;;0.60;0.60;;;;;;;3.12;80.09;95113.31;29394;285;64013;-52
2024/02/24 01:44:58;;;;;;;0.60;0.60;;;;;;;3.12;80.46;95113.31;29395;344;63004;-53
2024/02/24 01:45:29;;;;;;;0.60;0.60;;;;;;;3.11;80.21;95109.06;29395;211;63008;-52
2024/02/24 01:46:02;;;;;;;0.60;0.60;;;;;;;3.14;80.10;95115.72;29395;249;63004;-53
2024/02/24 01:46:33;;;;;;;0.60;0.60;;;;;;;3.15;80.04;95112.75;29395;239;63009;-69
2024/02/24 01:47:04;;;;;;;0.70;0.70;;;;;;;3.15;80.40;95112.75;29395;214;63005;-52
2024/02/24 01:47:36;;;;;;;0.60;0.60;;;;;;;3.17;79.91;95113.25;29395;393;63026;-52
2024/02/24 01:48:07;;;;;;;0.60;0.60;;;;;;;3.16;80.12;95113.53;29395;247;63005;-53
2024/02/24 01:48:39;;;;;;;0.62;0.62;;;;;;;3.14;79.88;95116.50;29395;197;63009;-53
2024/02/24 01:49:11;;;;;;;0.60;0.60;;;;;;;3.15;79.74;95111.94;29395;206;63005;-53
2024/02/24 01:49:43;;;;;;;0.60;0.60;;;;;;;3.16;80.51;95110.84;29394;332;64013;-53
2024/02/24 01:50:14;;;;;;;0.60;0.60;;;;;;;3.14;80.18;95113.81;29395;212;63005;-52
2024/02/24 01:50:48;;;;;;;0.60;0.60;;;;;;;3.16;80.21;95114.34;29395;211;63009;-53
2024/02/24 01:51:20;;;;;;;0.70;0.70;;;;;;;3.16;80.39;95114.34;29395;364;63017;-52
2024/02/24 01:51:51;;;;;;;0.60;0.60;;;;;;;3.18;80.22;95103.31;29395;370;63015;-52
2024/02/24 01:52:25;;;;;;;0.60;0.60;;;;;;;3.17;80.53;95110.56;29395;218;63004;-53
2024/02/24 01:52:56;;;;;;;0.60;0.60;;;;;;;3.17;80.28;95105.22;29395;237;63009;-52
2024/02/24 01:53:31;;;;;;;0.70;0.70;;;;;;;3.18;80.43;95109.50;29395;196;63004;-53
2024/02/24 01:54:03;;;;;;;0.60;0.60;;;;;;;3.17;80.87;95102.53;29395;221;63009;-53
2024/02/24 01:54:38;;;;;;;1.00;1.00;;;;;;;3.19;80.58;95116.44;29395;234;63005;-52
2024/02/24 01:55:10;;;;;;;0.68;0.68;;;;;;;3.19;80.62;95104.94;29394;209;64014;-52
2024/02/24 01:55:43;;;;;;;0.60;0.60;;;;;;;3.19;80.24;95104.94;29395;227;63005;-53
2024/02/24 01:56:14;;;;;;;0.60;0.60;;;;;;;3.20;80.12;95107.31;29395;204;63009;-52
2024/02/24 01:56:46;;;;;;;0.60;0.60;;;;;;;3.20;80.47;95106.53;29395;288;63005;-52
2024/02/24 01:57:18;;;;;;;0.60;0.60;;;;;;;3.19;80.38;95097.69;29395;211;63009;-53
2024/02/24 01:57:53;;;;;;;0.60;0.60;;;;;;;3.18;80.18;95106.81;29395;197;63005;-52
2024/02/24 01:58:28;;;;;;;0.60;0.60;;;;;;;3.18;80.33;95111.38;29395;245;63009;-52
2024/02/24 01:59:00;;;;;;;0.60;0.60;;;;;;;3.18;80.75;95106.00;29395;197;63004;-53
2024/02/24 01:59:35;;;;;;;0.60;0.60;;;;;;;3.17;80.44;95105.22;29395;204;63009;-53
2024/02/24 02:00:09;;;;;;;0.60;0.60;;;;;;;3.17;80.40;95110.56;29395;201;63004;-53
2024/02/24 02:00:40;;;;;;;0.60;0.60;;;;;;;3.18;80.85;95109.50;29394;221;64013;-52
2024/02/24 02:01:12;;;;;;;0.60;0.60;;;;;;;3.16;80.56;95106.28;29395;202;63004;-53
2024/02/24 02:01:44;;;;;;;0.60;0.60;;;;;;;3.18;80.40;95122.09;29395;198;63009;-53
2024/02/24 02:02:15;;;;;;;0.60;0.60;;;;;;;3.18;80.73;95120.22;29395;222;63005;-53
2024/02/24 02:02:47;;;;;;;0.60;0.60;;;;;;;3.19;80.50;95115.66;29395;237;63009;-52
2024/02/24 02:03:18;;;;;;;0.60;0.60;;;;;;;3.18;80.91;95120.22;29395;217;63005;-53
2024/02/24 02:03:51;;;;;;;0.60;0.60;;;;;;;3.20;80.76;95115.34;29395;216;63009;-52
2024/02/24 02:04:25;;;;;;;0.60;0.60;;;;;;;3.21;80.81;95118.84;29395;204;63005;-52
2024/02/24 02:04:56;;;;;;;0.60;0.60;;;;;;;3.20;80.75;95118.03;29395;267;63009;-53
2024/02/24 02:05:27;;;;;;;0.60;0.60;;;;;;;3.22;81.18;95121.22;29394;225;64009;-52
2024/02/24 02:05:58;;;;;;;0.60;0.60;;;;;;;3.24;80.94;95119.06;29395;210;63009;-53
2024/02/24 02:06:31;;;;;;;0.60;0.60;;;;;;;3.23;80.24;95122.03;29395;227;63004;-52
2024/02/24 02:07:03;;;;;;;0.70;0.70;;;;;;;3.22;80.52;95113.19;29395;212;63009;-52
2024/02/24 02:07:35;;;;;;;0.60;0.60;;;;;;;3.21;80.47;95116.16;29395;215;63004;-53
2024/02/24 02:08:07;;;;;;;0.60;0.60;;;;;;;3.22;80.64;95123.09;29395;221;63008;-52
2024/02/24 02:08:38;;;;;;;0.70;0.70;;;;;;;3.21;80.98;95116.94;29395;215;63004;-54
2024/02/24 02:09:09;;;;;;;0.60;0.60;;;;;;;3.23;80.82;95108.63;29394;232;64014;-53
2024/02/24 02:09:57;;;;;;;0.60;0.60;;;;;;;3.24;80.76;95112.91;29395;346;63005;-53
2024/02/24 02:10:48;;;;;;;0.70;0.70;;;;;;;3.24;80.70;95124.41;29395;259;63009;-53
2024/02/24 02:11:19;;;;;;;0.60;0.60;;;;;;;3.25;80.62;95115.28;29417;222;63005;-53
2024/02/24 02:11:54;;;;;;;0.60;0.60;;;;;;;3.26;81.30;95116.88;29395;299;63009;-53
2024/02/24 02:12:26;;;;;;;0.60;0.60;;;;;;;3.25;81.12;95117.97;29395;218;63005;-52
2024/02/24 02:13:01;;;;;;;0.60;0.60;;;;;;;3.24;81.20;95113.69;29395;219;63009;-52
2024/02/24 02:13:32;;;;;;;0.60;0.60;;;;;;;3.25;81.24;95120.66;29395;215;63004;-55
2024/02/24 02:14:05;;;;;;;0.70;0.70;;;;;;;3.26;81.09;95116.09;29395;298;63009;-53
2024/02/24 02:14:36;;;;;;;0.60;0.60;;;;;;;3.26;81.92;95127.59;29394;241;64009;-53
2024/02/24 02:15:08;;;;;;;0.70;0.70;;;;;;;3.26;82.31;95116.88;29395;207;63009;-52
2024/02/24 02:15:41;;;;;;;0.68;0.68;;;;;;;3.26;82.30;95116.09;29395;210;63004;-53
2024/02/24 02:16:12;;;;;;;0.60;0.60;;;;;;;3.25;82.12;95109.94;29395;211;63008;-53
2024/02/24 02:16:43;;;;;;;0.62;0.62;;;;;;;3.25;82.08;95112.59;29395;209;63005;-71
2024/02/24 02:17:15;;;;;;;0.68;0.68;;;;;;;3.25;82.12;95112.59;29395;224;63009;-52
2024/02/24 02:17:46;;;;;;;0.60;0.60;;;;;;;3.25;82.00;95112.59;29395;321;63005;-52
2024/02/24 02:18:18;;;;;;;0.60;0.60;;;;;;;3.25;82.38;95117.97;29395;219;63009;-52
2024/02/24 02:18:49;;;;;;;0.60;0.60;;;;;;;3.26;82.41;95116.09;29395;203;63005;-52
2024/02/24 02:19:20;;;;;;;0.60;0.60;;;;;;;3.25;82.14;95115.28;29395;234;63009;-52
2024/02/24 02:19:52;;;;;;;0.70;0.70;;;;;;;3.26;82.74;95111.53;29394;200;64009;-53
2024/02/24 02:20:23;;;;;;;0.60;0.60;;;;;;;3.25;82.53;95101.09;29395;297;63009;-52
2024/02/24 02:20:59;;;;;;;0.60;0.60;;;;;;;3.29;83.00;95110.16;29395;218;63004;-52
2024/02/24 02:21:35;;;;;;;0.60;0.60;;;;;;;3.30;83.54;95112.53;29395;234;63009;-52
2024/02/24 02:22:14;;;;;;;0.60;0.60;;;;;;;3.28;83.64;95112.03;29395;211;63004;-54
2024/02/24 02:22:45;;;;;;;0.60;0.60;;;;;;;3.27;83.34;95113.13;29395;199;63009;-53
2024/02/24 02:23:17;;;;;;;0.70;0.70;;;;;;;3.28;83.55;95104.00;29395;205;63004;-52
2024/02/24 02:23:49;;;;;;;0.60;0.60;;;;;;;3.30;83.92;95109.88;29395;199;63008;-52
2024/02/24 02:24:21;;;;;;;0.70;0.70;;;;;;;3.31;84.74;95114.13;29395;214;63005;-53
2024/02/24 02:24:52;;;;;;;0.60;0.60;;;;;;;3.32;84.47;95110.38;29394;212;64014;-53
2024/02/24 02:25:23;;;;;;;0.60;0.60;;;;;;;3.30;84.68;95107.19;29395;211;63005;-52
2024/02/24 02:25:56;;;;;;;0.60;0.60;;;;;;;3.29;84.13;95110.94;29394;328;64013;-52
2024/02/24 02:26:27;;;;;;;0.60;0.60;;;;;;;3.29;84.46;95116.31;29395;205;63006;-53
2024/02/24 02:26:59;;;;;;;0.65;0.65;;;;;;;3.27;84.43;95107.75;29395;199;63009;-53
2024/02/24 02:27:30;;;;;;;0.60;0.60;;;;;;;3.27;84.58;95107.75;29395;204;63005;-52
2024/02/24 02:28:02;;;;;;;0.60;0.60;;;;;;;3.27;84.40;95106.97;29395;242;63009;-52
2024/02/24 02:28:33;;;;;;;0.70;0.70;;;;;;;3.26;84.81;95106.16;29395;234;63004;-52
2024/02/24 02:29:05;;;;;;;0.60;0.60;;;;;;;3.26;85.25;95111.53;29395;198;63009;-52
2024/02/24 02:29:37;;;;;;;0.60;0.60;;;;;;;3.24;85.17;95108.34;29395;210;63004;-53
2024/02/24 02:30:09;;;;;;;0.70;0.70;;;;;;;3.26;85.13;95116.09;29395;218;63009;-53
2024/02/24 02:30:40;;;;;;;0.60;0.60;;;;;;;3.26;84.78;95110.72;29395;248;63004;-52
2024/02/24 02:31:11;;;;;;;0.70;0.70;;;;;;;3.26;85.04;95108.84;29394;244;64013;-52
2024/02/24 02:31:43;;;;;;;0.60;0.60;;;;;;;3.27;85.09;95107.75;29395;231;63005;-52
2024/02/24 02:32:14;;;;;;;0.60;0.60;;;;;;;3.26;85.88;95108.84;29395;244;63017;-52
2024/02/24 02:32:45;;;;;;;0.70;0.70;;;;;;;3.25;86.39;95103.78;29395;278;63005;-52
2024/02/24 02:33:17;;;;;;;0.70;0.70;;;;;;;3.21;86.28;95100.87;29395;199;63009;-53
2024/02/24 02:33:48;;;;;;;0.60;0.60;;;;;;;3.20;86.09;95107.31;29395;200;63005;-52
2024/02/24 02:34:19;;;;;;;1.23;1.00;;;;;;;3.22;86.18;95105.16;29395;199;63009;-52
2024/02/24 02:34:50;;;;;;;0.70;0.70;;;;;;;3.24;86.00;95102.97;29395;240;63005;-52